sensor_id;sensor_type;location;lat;lon;timestamp;temperature;humidity
35313;DHT22;21425;50.454;30.466;2023-03-01T00:01:26;-3.20;99.90
35313;DHT22;21425;50.454;30.466;2023-03-01T00:03:52;-3.20;99.90
35313;DHT22;21425;50.454;30.466;2023-03-01T00:06:18;-3.10;99.90
35313;DHT22;21425;50.454;30.466;2023-03-01T00:08:44;-3.20;99.90
35313;DHT22;21425;50.454;30.466;2023-03-01T00:11:13;-3.00;99.90
35313;DHT22;21425;50.454;30.466;2023-03-01T00:13:40;-2.20;99.90
35313;DHT22;21425;50.454;30.466;2023-03-01T00:16:09;-3.00;99.90
35313;DHT22;21425;50.454;30.466;2023-03-01T00:18:35;-3.10;99.90
35313;DHT22;21425;50.454;30.466;2023-03-01T00:21:01;-2.80;99.90
35313;DHT22;21425;50.454;30.466;2023-03-01T00:23:26;-3.10;99.90
35313;DHT22;21425;50.454;30.466;2023-03-01T00:25:52;-3.00;99.90
35313;DHT22;21425;50.454;30.466;2023-03-01T00:28:19;-3.00;99.90
35313;DHT22;21425;50.454;30.466;2023-03-01T00:30:45;-2.90;99.90
35313;DHT22;21425;50.454;30.466;2023-03-01T00:33:11;-2.90;99.90
35313;DHT22;21425;50.454;30.466;2023-03-01T00:35:37;-2.80;99.90
35313;DHT22;21425;50.454;30.466;2023-03-01T00:38:03;-2.90;99.90
35313;DHT22;21425;50.454;30.466;2023-03-01T00:40:31;-2.80;99.90
35313;DHT22;21425;50.454;30.466;2023-03-01T00:42:57;-3.30;99.90
35313;DHT22;21425;50.454;30.466;2023-03-01T00:45:23;-2.70;99.90
35313;DHT22;21425;50.454;30.466;2023-03-01T00:47:49;-2.80;99.90
35313;DHT22;21425;50.454;30.466;2023-03-01T00:50:16;-2.80;99.90
35313;DHT22;21425;50.454;30.466;2023-03-01T00:52:42;-2.00;99.90
35313;DHT22;21425;50.454;30.466;2023-03-01T00:55:08;-2.70;99.90
35313;DHT22;21425;50.454;30.466;2023-03-01T00:57:33;-2.70;99.90
35313;DHT22;21425;50.454;30.466;2023-03-01T00:59:59;-2.30;99.90
35313;DHT22;21425;50.454;30.466;2023-03-01T01:04:51;-3.00;99.90
35313;DHT22;21425;50.454;30.466;2023-03-01T01:07:17;-2.60;99.90
35313;DHT22;21425;50.454;30.466;2023-03-01T01:09:42;-2.00;99.90
35313;DHT22;21425;50.454;30.466;2023-03-01T01:12:08;-2.70;99.90
35313;DHT22;21425;50.454;30.466;2023-03-01T01:17:00;-2.70;99.90
35313;DHT22;21425;50.454;30.466;2023-03-01T01:19:26;-2.70;99.90
35313;DHT22;21425;50.454;30.466;2023-03-01T01:21:52;-2.70;99.90
35313;DHT22;21425;50.454;30.466;2023-03-01T01:24:18;-2.70;99.90
35313;DHT22;21425;50.454;30.466;2023-03-01T01:26:44;-2.80;99.90
35313;DHT22;21425;50.454;30.466;2023-03-01T01:29:11;-2.50;99.90
35313;DHT22;21425;50.454;30.466;2023-03-01T01:31:38;-2.60;99.90
35313;DHT22;21425;50.454;30.466;2023-03-01T01:34:06;-2.70;99.90
35313;DHT22;21425;50.454;30.466;2023-03-01T01:36:32;-2.30;99.90
35313;DHT22;21425;50.454;30.466;2023-03-01T01:38:58;-2.80;99.90
35313;DHT22;21425;50.454;30.466;2023-03-01T01:41:25;-2.70;99.90
35313;DHT22;21425;50.454;30.466;2023-03-01T01:44:14;-2.60;99.90
35313;DHT22;21425;50.454;30.466;2023-03-01T01:47:00;-2.70;99.90
35313;DHT22;21425;50.454;30.466;2023-03-01T01:49:37;-2.60;99.90
35313;DHT22;21425;50.454;30.466;2023-03-01T01:52:24;-2.70;99.90
35313;DHT22;21425;50.454;30.466;2023-03-01T01:57:32;-1.50;99.90
35313;DHT22;21425;50.454;30.466;2023-03-01T02:00:03;-2.60;99.90
35313;DHT22;21425;50.454;30.466;2023-03-01T02:02:29;-2.20;99.90
35313;DHT22;21425;50.454;30.466;2023-03-01T02:05:03;-2.70;99.90
35313;DHT22;21425;50.454;30.466;2023-03-01T02:07:34;-2.10;99.90
35313;DHT22;21425;50.454;30.466;2023-03-01T02:10:00;-2.70;99.90
35313;DHT22;21425;50.454;30.466;2023-03-01T02:12:27;-0.20;99.90
35313;DHT22;21425;50.454;30.466;2023-03-01T02:14:53;-2.70;99.90
35313;DHT22;21425;50.454;30.466;2023-03-01T02:17:19;-1.90;99.90
35313;DHT22;21425;50.454;30.466;2023-03-01T02:19:52;-2.70;99.90
35313;DHT22;21425;50.454;30.466;2023-03-01T02:22:31;-2.50;99.90
35313;DHT22;21425;50.454;30.466;2023-03-01T02:25:27;-2.70;99.90
35313;DHT22;21425;50.454;30.466;2023-03-01T02:30:25;-2.80;99.90
35313;DHT22;21425;50.454;30.466;2023-03-01T02:32:52;-2.70;99.90
35313;DHT22;21425;50.454;30.466;2023-03-01T02:35:19;-2.10;99.90
35313;DHT22;21425;50.454;30.466;2023-03-01T02:37:46;-1.90;99.90
35313;DHT22;21425;50.454;30.466;2023-03-01T02:40:17;-2.70;99.90
35313;DHT22;21425;50.454;30.466;2023-03-01T02:42:53;-2.70;99.90
35313;DHT22;21425;50.454;30.466;2023-03-01T02:45:20;-2.50;99.90
35313;DHT22;21425;50.454;30.466;2023-03-01T02:47:45;-2.70;99.90
35313;DHT22;21425;50.454;30.466;2023-03-01T02:50:46;-2.70;99.90
35313;DHT22;21425;50.454;30.466;2023-03-01T02:55:47;-2.10;99.90
35313;DHT22;21425;50.454;30.466;2023-03-01T02:58:13;-2.70;99.90
35313;DHT22;21425;50.454;30.466;2023-03-01T03:00:41;-1.70;99.90
35313;DHT22;21425;50.454;30.466;2023-03-01T03:03:13;-2.70;99.90
35313;DHT22;21425;50.454;30.466;2023-03-01T03:05:39;-2.70;99.90
35313;DHT22;21425;50.454;30.466;2023-03-01T03:08:05;-2.70;99.90
35313;DHT22;21425;50.454;30.466;2023-03-01T03:10:34;-2.80;99.90
35313;DHT22;21425;50.454;30.466;2023-03-01T03:13:06;-2.60;99.90
35313;DHT22;21425;50.454;30.466;2023-03-01T03:15:32;-2.70;99.90
35313;DHT22;21425;50.454;30.466;2023-03-01T03:18:02;-2.70;99.90
35313;DHT22;21425;50.454;30.466;2023-03-01T03:20:28;-2.10;99.90
35313;DHT22;21425;50.454;30.466;2023-03-01T03:22:56;-2.90;99.90
35313;DHT22;21425;50.454;30.466;2023-03-01T03:25:22;-2.60;99.90
35313;DHT22;21425;50.454;30.466;2023-03-01T03:27:50;-2.90;99.90
35313;DHT22;21425;50.454;30.466;2023-03-01T03:32:48;-2.40;99.90
35313;DHT22;21425;50.454;30.466;2023-03-01T03:35:20;-2.80;99.90
35313;DHT22;21425;50.454;30.466;2023-03-01T03:37:47;-2.80;99.90
35313;DHT22;21425;50.454;30.466;2023-03-01T03:40:39;-2.80;99.90
35313;DHT22;21425;50.454;30.466;2023-03-01T03:43:08;-2.80;99.90
35313;DHT22;21425;50.454;30.466;2023-03-01T03:45:34;-2.90;99.90
35313;DHT22;21425;50.454;30.466;2023-03-01T03:48:00;-2.60;99.90
35313;DHT22;21425;50.454;30.466;2023-03-01T03:50:26;-3.30;99.90
35313;DHT22;21425;50.454;30.466;2023-03-01T03:52:52;-1.90;99.90
35313;DHT22;21425;50.454;30.466;2023-03-01T03:55:18;-2.90;99.90
35313;DHT22;21425;50.454;30.466;2023-03-01T03:57:45;-1.90;99.90
35313;DHT22;21425;50.454;30.466;2023-03-01T04:00:20;-2.10;99.90
35313;DHT22;21425;50.454;30.466;2023-03-01T04:02:47;-2.70;99.90
35313;DHT22;21425;50.454;30.466;2023-03-01T04:05:15;-2.90;99.90
35313;DHT22;21425;50.454;30.466;2023-03-01T04:07:42;0.10;99.90
35313;DHT22;21425;50.454;30.466;2023-03-01T04:10:13;-2.90;99.90
35313;DHT22;21425;50.454;30.466;2023-03-01T04:12:39;-2.90;99.90
35313;DHT22;21425;50.454;30.466;2023-03-01T04:15:06;-2.80;99.90
35313;DHT22;21425;50.454;30.466;2023-03-01T04:17:43;-2.80;99.90
35313;DHT22;21425;50.454;30.466;2023-03-01T04:20:14;-3.00;99.90
35313;DHT22;21425;50.454;30.466;2023-03-01T04:22:43;-2.70;99.90
35313;DHT22;21425;50.454;30.466;2023-03-01T04:25:12;-2.80;99.90
35313;DHT22;21425;50.454;30.466;2023-03-01T04:27:40;-3.20;99.90
35313;DHT22;21425;50.454;30.466;2023-03-01T04:30:06;-2.90;99.90
35313;DHT22;21425;50.454;30.466;2023-03-01T04:32:32;-2.70;99.90
35313;DHT22;21425;50.454;30.466;2023-03-01T04:34:59;-3.20;99.90
35313;DHT22;21425;50.454;30.466;2023-03-01T04:39:51;-2.50;99.90
35313;DHT22;21425;50.454;30.466;2023-03-01T04:42:17;-2.80;99.90
35313;DHT22;21425;50.454;30.466;2023-03-01T04:44:44;-2.30;99.90
35313;DHT22;21425;50.454;30.466;2023-03-01T04:47:10;-2.80;99.90
35313;DHT22;21425;50.454;30.466;2023-03-01T04:49:35;-1.80;99.90
35313;DHT22;21425;50.454;30.466;2023-03-01T04:52:01;-1.20;99.90
35313;DHT22;21425;50.454;30.466;2023-03-01T04:54:33;-2.80;99.90
35313;DHT22;21425;50.454;30.466;2023-03-01T04:57:00;-2.10;99.90
35313;DHT22;21425;50.454;30.466;2023-03-01T04:59:25;-2.70;99.90
35313;DHT22;21425;50.454;30.466;2023-03-01T05:01:52;-2.60;99.90
35313;DHT22;21425;50.454;30.466;2023-03-01T05:04:24;-2.60;99.90
35313;DHT22;21425;50.454;30.466;2023-03-01T05:06:50;-2.60;99.90
35313;DHT22;21425;50.454;30.466;2023-03-01T05:09:16;-2.20;99.90
35313;DHT22;21425;50.454;30.466;2023-03-01T05:11:41;-2.50;99.90
35313;DHT22;21425;50.454;30.466;2023-03-01T05:14:08;-2.10;99.90
35313;DHT22;21425;50.454;30.466;2023-03-01T05:16:34;-1.30;99.90
35313;DHT22;21425;50.454;30.466;2023-03-01T05:19:02;-2.40;99.90
35313;DHT22;21425;50.454;30.466;2023-03-01T05:21:39;-2.30;99.90
35313;DHT22;21425;50.454;30.466;2023-03-01T05:24:25;-1.20;99.90
35313;DHT22;21425;50.454;30.466;2023-03-01T05:26:52;-2.30;99.90
35313;DHT22;21425;50.454;30.466;2023-03-01T05:29:22;-2.20;99.90
35313;DHT22;21425;50.454;30.466;2023-03-01T05:31:53;-2.70;99.90
35313;DHT22;21425;50.454;30.466;2023-03-01T05:34:30;-2.20;99.90
35313;DHT22;21425;50.454;30.466;2023-03-01T05:36:56;-2.30;99.90
35313;DHT22;21425;50.454;30.466;2023-03-01T05:39:23;-1.80;99.90
35313;DHT22;21425;50.454;30.466;2023-03-01T05:41:54;-2.10;99.90
35313;DHT22;21425;50.454;30.466;2023-03-01T05:44:20;-1.60;99.90
35313;DHT22;21425;50.454;30.466;2023-03-01T05:46:46;-2.00;99.90
35313;DHT22;21425;50.454;30.466;2023-03-01T05:49:12;-1.10;99.90
35313;DHT22;21425;50.454;30.466;2023-03-01T05:51:39;-1.40;99.90
35313;DHT22;21425;50.454;30.466;2023-03-01T05:54:04;-1.10;99.90
35313;DHT22;21425;50.454;30.466;2023-03-01T05:56:34;-1.90;99.90
35313;DHT22;21425;50.454;30.466;2023-03-01T05:59:01;-1.90;99.90
35313;DHT22;21425;50.454;30.466;2023-03-01T06:01:27;-1.80;99.90
35313;DHT22;21425;50.454;30.466;2023-03-01T06:03:52;-1.80;99.90
35313;DHT22;21425;50.454;30.466;2023-03-01T06:06:18;-0.90;99.90
35313;DHT22;21425;50.454;30.466;2023-03-01T06:08:44;-1.40;99.90
35313;DHT22;21425;50.454;30.466;2023-03-01T06:11:09;-1.80;99.90
35313;DHT22;21425;50.454;30.466;2023-03-01T06:13:35;-2.40;99.90
35313;DHT22;21425;50.454;30.466;2023-03-01T06:16:06;-1.70;99.90
35313;DHT22;21425;50.454;30.466;2023-03-01T06:18:32;-0.80;99.90
35313;DHT22;21425;50.454;30.466;2023-03-01T06:20:58;-1.70;99.90
35313;DHT22;21425;50.454;30.466;2023-03-01T06:23:24;-1.70;99.90
35313;DHT22;21425;50.454;30.466;2023-03-01T06:30:42;-0.90;99.90
35313;DHT22;21425;50.454;30.466;2023-03-01T06:33:07;-1.50;99.90
35313;DHT22;21425;50.454;30.466;2023-03-01T06:35:33;-1.70;99.90
35313;DHT22;21425;50.454;30.466;2023-03-01T06:38:01;-1.40;99.90
35313;DHT22;21425;50.454;30.466;2023-03-01T06:40:27;-1.50;99.90
35313;DHT22;21425;50.454;30.466;2023-03-01T06:42:53;-1.10;99.90
35313;DHT22;21425;50.454;30.466;2023-03-01T06:45:19;-1.30;99.90
35313;DHT22;21425;50.454;30.466;2023-03-01T06:47:45;-1.30;99.90
35313;DHT22;21425;50.454;30.466;2023-03-01T06:50:11;-1.20;99.90
35313;DHT22;21425;50.454;30.466;2023-03-01T06:52:37;-0.90;99.90
35313;DHT22;21425;50.454;30.466;2023-03-01T06:55:03;-0.70;99.90
35313;DHT22;21425;50.454;30.466;2023-03-01T06:57:29;-0.10;99.90
35313;DHT22;21425;50.454;30.466;2023-03-01T06:59:55;-1.00;99.90
35313;DHT22;21425;50.454;30.466;2023-03-01T07:02:21;-0.70;99.90
35313;DHT22;21425;50.454;30.466;2023-03-01T07:04:49;-0.90;99.90
35313;DHT22;21425;50.454;30.466;2023-03-01T07:07:14;-0.10;99.90
35313;DHT22;21425;50.454;30.466;2023-03-01T07:09:40;-1.00;99.90
35313;DHT22;21425;50.454;30.466;2023-03-01T07:12:06;-1.00;99.90
35313;DHT22;21425;50.454;30.466;2023-03-01T07:14:32;0.10;99.90
35313;DHT22;21425;50.454;30.466;2023-03-01T07:16:57;-0.70;99.90
35313;DHT22;21425;50.454;30.466;2023-03-01T07:19:23;-0.70;99.90
35313;DHT22;21425;50.454;30.466;2023-03-01T07:21:49;-0.60;99.90
35313;DHT22;21425;50.454;30.466;2023-03-01T07:24:14;0.60;99.90
35313;DHT22;21425;50.454;30.466;2023-03-01T07:26:40;-0.50;99.90
35313;DHT22;21425;50.454;30.466;2023-03-01T07:29:07;0.40;99.90
35313;DHT22;21425;50.454;30.466;2023-03-01T07:31:33;-0.40;99.90
35313;DHT22;21425;50.454;30.466;2023-03-01T07:33:59;-0.30;99.90
35313;DHT22;21425;50.454;30.466;2023-03-01T07:36:24;0.00;99.90
35313;DHT22;21425;50.454;30.466;2023-03-01T07:38:50;-0.70;99.90
35313;DHT22;21425;50.454;30.466;2023-03-01T07:41:16;0.60;99.90
35313;DHT22;21425;50.454;30.466;2023-03-01T07:46:09;-0.40;99.90
35313;DHT22;21425;50.454;30.466;2023-03-01T07:48:35;-0.30;99.90
35313;DHT22;21425;50.454;30.466;2023-03-01T07:51:02;0.00;99.90
35313;DHT22;21425;50.454;30.466;2023-03-01T07:53:29;0.40;99.90
35313;DHT22;21425;50.454;30.466;2023-03-01T07:56:12;0.10;99.90
35313;DHT22;21425;50.454;30.466;2023-03-01T07:58:41;-0.40;99.90
35313;DHT22;21425;50.454;30.466;2023-03-01T08:01:14;0.20;99.90
35313;DHT22;21425;50.454;30.466;2023-03-01T08:06:08;-0.40;99.90
35313;DHT22;21425;50.454;30.466;2023-03-01T08:08:35;0.00;99.90
35313;DHT22;21425;50.454;30.466;2023-03-01T08:11:03;0.50;99.90
35313;DHT22;21425;50.454;30.466;2023-03-01T08:13:30;0.20;99.90
35313;DHT22;21425;50.454;30.466;2023-03-01T08:16:01;0.80;99.90
35313;DHT22;21425;50.454;30.466;2023-03-01T08:18:28;0.40;99.90
35313;DHT22;21425;50.454;30.466;2023-03-01T08:20:53;0.20;99.90
35313;DHT22;21425;50.454;30.466;2023-03-01T08:23:19;0.30;99.90
35313;DHT22;21425;50.454;30.466;2023-03-01T08:25:44;1.90;99.90
35313;DHT22;21425;50.454;30.466;2023-03-01T08:28:10;0.60;99.90
35313;DHT22;21425;50.454;30.466;2023-03-01T08:30:35;0.70;99.90
35313;DHT22;21425;50.454;30.466;2023-03-01T08:33:01;1.50;99.90
35313;DHT22;21425;50.454;30.466;2023-03-01T08:35:26;0.80;99.90
35313;DHT22;21425;50.454;30.466;2023-03-01T08:37:52;1.90;99.90
35313;DHT22;21425;50.454;30.466;2023-03-01T08:40:17;1.00;99.90
35313;DHT22;21425;50.454;30.466;2023-03-01T08:42:43;1.00;99.90
35313;DHT22;21425;50.454;30.466;2023-03-01T08:45:10;0.90;99.90
35313;DHT22;21425;50.454;30.466;2023-03-01T08:47:36;1.50;99.90
35313;DHT22;21425;50.454;30.466;2023-03-01T08:50:02;1.10;99.90
35313;DHT22;21425;50.454;30.466;2023-03-01T08:52:28;1.30;99.90
35313;DHT22;21425;50.454;30.466;2023-03-01T08:57:21;2.00;99.90
35313;DHT22;21425;50.454;30.466;2023-03-01T08:59:47;1.40;99.90
35313;DHT22;21425;50.454;30.466;2023-03-01T09:02:16;1.70;99.90
35313;DHT22;21425;50.454;30.466;2023-03-01T09:04:42;1.70;99.90
35313;DHT22;21425;50.454;30.466;2023-03-01T09:07:08;2.80;99.90
35313;DHT22;21425;50.454;30.466;2023-03-01T09:09:34;1.30;99.90
35313;DHT22;21425;50.454;30.466;2023-03-01T09:12:00;1.10;99.90
35313;DHT22;21425;50.454;30.466;2023-03-01T09:16:52;1.90;99.90
35313;DHT22;21425;50.454;30.466;2023-03-01T09:19:18;1.60;99.90
35313;DHT22;21425;50.454;30.466;2023-03-01T09:21:44;1.80;99.90
35313;DHT22;21425;50.454;30.466;2023-03-01T09:24:19;2.50;99.90
35313;DHT22;21425;50.454;30.466;2023-03-01T09:26:44;1.70;99.90
35313;DHT22;21425;50.454;30.466;2023-03-01T09:29:12;1.60;99.90
35313;DHT22;21425;50.454;30.466;2023-03-01T09:31:37;1.90;99.90
35313;DHT22;21425;50.454;30.466;2023-03-01T09:34:04;1.10;99.90
35313;DHT22;21425;50.454;30.466;2023-03-01T09:36:30;1.90;99.90
35313;DHT22;21425;50.454;30.466;2023-03-01T09:38:55;1.10;99.90
35313;DHT22;21425;50.454;30.466;2023-03-01T09:41:47;1.70;99.90
35313;DHT22;21425;50.454;30.466;2023-03-01T09:46:59;2.70;99.90
35313;DHT22;21425;50.454;30.466;2023-03-01T09:49:30;3.10;99.90
35313;DHT22;21425;50.454;30.466;2023-03-01T09:52:00;2.50;99.90
35313;DHT22;21425;50.454;30.466;2023-03-01T09:54:26;2.00;99.90
35313;DHT22;21425;50.454;30.466;2023-03-01T09:57:26;1.80;99.90
35313;DHT22;21425;50.454;30.466;2023-03-01T10:03:17;1.80;99.90
35313;DHT22;21425;50.454;30.466;2023-03-01T10:08:58;1.90;99.90
35313;DHT22;21425;50.454;30.466;2023-03-01T10:11:30;1.90;99.90
35313;DHT22;21425;50.454;30.466;2023-03-01T10:14:05;2.20;99.90
35313;DHT22;21425;50.454;30.466;2023-03-01T10:22:16;2.30;99.90
35313;DHT22;21425;50.454;30.466;2023-03-01T10:24:43;2.30;99.90
35313;DHT22;21425;50.454;30.466;2023-03-01T10:27:24;2.40;99.90
35313;DHT22;21425;50.454;30.466;2023-03-01T10:30:17;2.40;99.90
35313;DHT22;21425;50.454;30.466;2023-03-01T10:32:46;2.70;99.90
35313;DHT22;21425;50.454;30.466;2023-03-01T10:35:27;2.30;99.90
35313;DHT22;21425;50.454;30.466;2023-03-01T10:38:09;2.40;99.90
35313;DHT22;21425;50.454;30.466;2023-03-01T10:40:49;4.70;99.90
35313;DHT22;21425;50.454;30.466;2023-03-01T10:43:15;4.10;99.90
35313;DHT22;21425;50.454;30.466;2023-03-01T10:45:40;3.60;99.90
35313;DHT22;21425;50.454;30.466;2023-03-01T10:48:13;2.50;99.90
35313;DHT22;21425;50.454;30.466;2023-03-01T10:50:41;3.60;99.90
35313;DHT22;21425;50.454;30.466;2023-03-01T10:53:27;3.40;99.90
35313;DHT22;21425;50.454;30.466;2023-03-01T10:56:09;3.10;99.90
35313;DHT22;21425;50.454;30.466;2023-03-01T10:58:37;3.00;99.90
35313;DHT22;21425;50.454;30.466;2023-03-01T11:01:28;5.30;99.90
35313;DHT22;21425;50.454;30.466;2023-03-01T11:06:36;2.20;99.90
35313;DHT22;21425;50.454;30.466;2023-03-01T11:09:22;2.00;99.90
35313;DHT22;21425;50.454;30.466;2023-03-01T11:11:55;2.20;99.90
35313;DHT22;21425;50.454;30.466;2023-03-01T11:17:05;2.20;99.90
35313;DHT22;21425;50.454;30.466;2023-03-01T11:19:31;1.90;99.90
35313;DHT22;21425;50.454;30.466;2023-03-01T11:22:14;2.90;99.90
35313;DHT22;21425;50.454;30.466;2023-03-01T11:27:26;2.20;99.90
35313;DHT22;21425;50.454;30.466;2023-03-01T11:29:58;2.30;99.90
35313;DHT22;21425;50.454;30.466;2023-03-01T11:32:28;1.50;99.90
35313;DHT22;21425;50.454;30.466;2023-03-01T11:35:25;2.10;99.90
35313;DHT22;21425;50.454;30.466;2023-03-01T11:41:17;0.70;99.90
35313;DHT22;21425;50.454;30.466;2023-03-01T11:43:56;1.80;99.90
35313;DHT22;21425;50.454;30.466;2023-03-01T11:52:39;2.20;99.90
35313;DHT22;21425;50.454;30.466;2023-03-01T11:55:17;2.50;99.90
35313;DHT22;21425;50.454;30.466;2023-03-01T12:03:43;1.10;99.90
35313;DHT22;21425;50.454;30.466;2023-03-01T12:06:40;2.00;99.90
35313;DHT22;21425;50.454;30.466;2023-03-01T12:09:38;1.80;99.90
35313;DHT22;21425;50.454;30.466;2023-03-01T12:17:51;1.50;99.90
35313;DHT22;21425;50.454;30.466;2023-03-01T12:23:39;1.70;99.90
35313;DHT22;21425;50.454;30.466;2023-03-01T12:26:31;1.70;99.90
35313;DHT22;21425;50.454;30.466;2023-03-01T12:32:04;1.80;99.90
35313;DHT22;21425;50.454;30.466;2023-03-01T12:37:19;1.90;99.90
35313;DHT22;21425;50.454;30.466;2023-03-01T12:45:25;1.60;99.90
35313;DHT22;21425;50.454;30.466;2023-03-01T12:48:23;2.70;99.90
35313;DHT22;21425;50.454;30.466;2023-03-01T12:50:54;2.20;99.90
35313;DHT22;21425;50.454;30.466;2023-03-01T12:53:29;1.80;99.90
35313;DHT22;21425;50.454;30.466;2023-03-01T12:56:05;1.90;99.90
35313;DHT22;21425;50.454;30.466;2023-03-01T12:58:32;1.70;99.90
35313;DHT22;21425;50.454;30.466;2023-03-01T13:06:44;2.40;99.90
35313;DHT22;21425;50.454;30.466;2023-03-01T13:11:48;1.50;99.90
35313;DHT22;21425;50.454;30.466;2023-03-01T13:16:47;1.50;99.90
35313;DHT22;21425;50.454;30.466;2023-03-01T13:19:22;0.90;99.90
35313;DHT22;21425;50.454;30.466;2023-03-01T13:21:50;1.50;99.90
35313;DHT22;21425;50.454;30.466;2023-03-01T13:24:29;2.00;99.90
35313;DHT22;21425;50.454;30.466;2023-03-01T13:29:54;1.40;99.90
35313;DHT22;21425;50.454;30.466;2023-03-01T13:32:25;1.60;99.90
35313;DHT22;21425;50.454;30.466;2023-03-01T13:34:56;2.80;99.90
35313;DHT22;21425;50.454;30.466;2023-03-01T13:37:28;1.60;99.90
35313;DHT22;21425;50.454;30.466;2023-03-01T13:39:59;1.40;99.90
35313;DHT22;21425;50.454;30.466;2023-03-01T13:42:39;2.70;99.90
35313;DHT22;21425;50.454;30.466;2023-03-01T13:45:40;1.60;99.90
35313;DHT22;21425;50.454;30.466;2023-03-01T13:48:24;1.80;99.90
35313;DHT22;21425;50.454;30.466;2023-03-01T13:50:59;2.10;99.90
35313;DHT22;21425;50.454;30.466;2023-03-01T13:53:27;3.20;99.90
35313;DHT22;21425;50.454;30.466;2023-03-01T13:56:12;1.90;99.90
35313;DHT22;21425;50.454;30.466;2023-03-01T14:03:50;2.10;99.90
35313;DHT22;21425;50.454;30.466;2023-03-01T14:06:21;2.30;99.90
35313;DHT22;21425;50.454;30.466;2023-03-01T14:08:49;2.20;99.90
35313;DHT22;21425;50.454;30.466;2023-03-01T14:14:29;2.00;99.90
35313;DHT22;21425;50.454;30.466;2023-03-01T14:19:40;1.90;99.90
35313;DHT22;21425;50.454;30.466;2023-03-01T14:22:29;1.80;99.90
35313;DHT22;21425;50.454;30.466;2023-03-01T14:25:00;1.70;99.90
35313;DHT22;21425;50.454;30.466;2023-03-01T14:27:36;1.30;99.90
35313;DHT22;21425;50.454;30.466;2023-03-01T14:30:13;1.70;99.90
35313;DHT22;21425;50.454;30.466;2023-03-01T14:35:35;1.60;99.90
35313;DHT22;21425;50.454;30.466;2023-03-01T14:38:02;1.70;99.90
35313;DHT22;21425;50.454;30.466;2023-03-01T14:40:35;2.20;99.90
35313;DHT22;21425;50.454;30.466;2023-03-01T14:43:09;2.50;99.90
35313;DHT22;21425;50.454;30.466;2023-03-01T14:45:36;1.60;99.90
35313;DHT22;21425;50.454;30.466;2023-03-01T14:48:04;1.80;99.90
35313;DHT22;21425;50.454;30.466;2023-03-01T14:50:34;0.30;99.90
35313;DHT22;21425;50.454;30.466;2023-03-01T14:53:02;1.60;99.90
35313;DHT22;21425;50.454;30.466;2023-03-01T14:55:30;1.50;99.90
35313;DHT22;21425;50.454;30.466;2023-03-01T14:57:56;1.50;99.90
35313;DHT22;21425;50.454;30.466;2023-03-01T15:00:26;2.40;99.90
35313;DHT22;21425;50.454;30.466;2023-03-01T15:02:54;1.70;99.90
35313;DHT22;21425;50.454;30.466;2023-03-01T15:07:51;2.50;99.90
35313;DHT22;21425;50.454;30.466;2023-03-01T15:10:24;1.70;99.90
35313;DHT22;21425;50.454;30.466;2023-03-01T15:12:50;1.50;99.90
35313;DHT22;21425;50.454;30.466;2023-03-01T15:15:37;1.20;99.90
35313;DHT22;21425;50.454;30.466;2023-03-01T15:18:13;1.50;99.90
35313;DHT22;21425;50.454;30.466;2023-03-01T15:20:39;1.40;99.90
35313;DHT22;21425;50.454;30.466;2023-03-01T15:23:05;1.30;99.90
35313;DHT22;21425;50.454;30.466;2023-03-01T15:25:32;1.40;99.90
35313;DHT22;21425;50.454;30.466;2023-03-01T15:27:59;0.80;99.90
35313;DHT22;21425;50.454;30.466;2023-03-01T15:30:33;2.40;99.90
35313;DHT22;21425;50.454;30.466;2023-03-01T15:35:48;1.30;99.90
35313;DHT22;21425;50.454;30.466;2023-03-01T15:38:29;1.40;99.90
35313;DHT22;21425;50.454;30.466;2023-03-01T15:40:56;1.40;99.90
35313;DHT22;21425;50.454;30.466;2023-03-01T15:43:46;1.40;99.90
35313;DHT22;21425;50.454;30.466;2023-03-01T15:46:33;1.40;99.90
35313;DHT22;21425;50.454;30.466;2023-03-01T15:49:05;1.40;99.90
35313;DHT22;21425;50.454;30.466;2023-03-01T15:51:34;1.30;99.90
35313;DHT22;21425;50.454;30.466;2023-03-01T15:54:15;1.20;99.90
35313;DHT22;21425;50.454;30.466;2023-03-01T15:56:42;2.00;99.90
35313;DHT22;21425;50.454;30.466;2023-03-01T15:59:11;1.20;99.90
35313;DHT22;21425;50.454;30.466;2023-03-01T16:01:40;1.40;99.90
35313;DHT22;21425;50.454;30.466;2023-03-01T16:04:06;1.20;99.90
35313;DHT22;21425;50.454;30.466;2023-03-01T16:06:32;1.40;99.90
35313;DHT22;21425;50.454;30.466;2023-03-01T16:08:57;1.20;99.90
35313;DHT22;21425;50.454;30.466;2023-03-01T16:11:23;1.40;99.90
35313;DHT22;21425;50.454;30.466;2023-03-01T16:13:49;1.60;99.90
35313;DHT22;21425;50.454;30.466;2023-03-01T16:16:16;1.70;99.90
35313;DHT22;21425;50.454;30.466;2023-03-01T16:18:43;1.80;99.90
35313;DHT22;21425;50.454;30.466;2023-03-01T16:21:14;1.40;99.90
35313;DHT22;21425;50.454;30.466;2023-03-01T16:23:42;1.30;99.90
35313;DHT22;21425;50.454;30.466;2023-03-01T16:26:07;1.30;99.90
35313;DHT22;21425;50.454;30.466;2023-03-01T16:28:33;2.50;99.90
35313;DHT22;21425;50.454;30.466;2023-03-01T16:30:59;1.10;99.90
35313;DHT22;21425;50.454;30.466;2023-03-01T16:33:26;1.30;99.90
35313;DHT22;21425;50.454;30.466;2023-03-01T16:35:52;1.30;99.90
35313;DHT22;21425;50.454;30.466;2023-03-01T16:40:48;1.00;99.90
35313;DHT22;21425;50.454;30.466;2023-03-01T16:43:14;1.30;99.90
35313;DHT22;21425;50.454;30.466;2023-03-01T16:45:39;1.20;99.90
35313;DHT22;21425;50.454;30.466;2023-03-01T16:48:06;1.20;99.90
35313;DHT22;21425;50.454;30.466;2023-03-01T16:50:33;1.20;99.90
35313;DHT22;21425;50.454;30.466;2023-03-01T16:52:58;1.10;99.90
35313;DHT22;21425;50.454;30.466;2023-03-01T16:55:24;1.20;99.90
35313;DHT22;21425;50.454;30.466;2023-03-01T16:57:49;1.20;99.90
35313;DHT22;21425;50.454;30.466;2023-03-01T17:00:16;1.10;99.90
35313;DHT22;21425;50.454;30.466;2023-03-01T17:02:43;1.20;99.90
35313;DHT22;21425;50.454;30.466;2023-03-01T17:05:09;1.10;99.90
35313;DHT22;21425;50.454;30.466;2023-03-01T17:07:37;1.00;99.90
35313;DHT22;21425;50.454;30.466;2023-03-01T17:10:04;1.60;99.90
35313;DHT22;21425;50.454;30.466;2023-03-01T17:12:30;1.10;99.90
35313;DHT22;21425;50.454;30.466;2023-03-01T17:14:57;1.00;99.90
35313;DHT22;21425;50.454;30.466;2023-03-01T17:17:22;1.00;99.90
35313;DHT22;21425;50.454;30.466;2023-03-01T17:19:48;0.90;99.90
35313;DHT22;21425;50.454;30.466;2023-03-01T17:22:13;0.70;99.90
35313;DHT22;21425;50.454;30.466;2023-03-01T17:24:40;0.80;99.90
35313;DHT22;21425;50.454;30.466;2023-03-01T17:27:07;0.60;99.90
35313;DHT22;21425;50.454;30.466;2023-03-01T17:29:33;0.50;99.90
35313;DHT22;21425;50.454;30.466;2023-03-01T17:31:59;0.40;99.90
35313;DHT22;21425;50.454;30.466;2023-03-01T17:34:25;0.40;99.90
35313;DHT22;21425;50.454;30.466;2023-03-01T17:36:51;0.50;99.90
35313;DHT22;21425;50.454;30.466;2023-03-01T17:39:18;0.30;99.90
35313;DHT22;21425;50.454;30.466;2023-03-01T17:41:51;3.40;99.90
35313;DHT22;21425;50.454;30.466;2023-03-01T17:44:16;1.50;99.90
35313;DHT22;21425;50.454;30.466;2023-03-01T17:46:42;0.20;99.90